createdAt,value
2019-02-21T00:02:32.947Z,7.33
2019-02-21T00:07:40.918Z,8.00
2019-02-21T00:12:50.275Z,8.20
2019-02-21T00:17:56.154Z,7.33
2019-02-21T00:23:02.201Z,7.27
2019-02-21T00:28:08.326Z,7.80
2019-02-21T00:33:14.120Z,7.23
2019-02-21T00:38:20.231Z,6.77
2019-02-21T00:43:26.554Z,7.40
2019-02-21T00:48:32.894Z,7.07
2019-02-21T00:53:39.281Z,7.93
2019-02-21T00:58:45.100Z,7.10
2019-02-21T01:03:52.417Z,6.77
2019-02-21T01:08:59.642Z,7.80
2019-02-21T01:14:06.352Z,6.73
2019-02-21T01:19:13.185Z,8.00
2019-02-21T01:24:19.381Z,7.83
2019-02-21T01:29:25.413Z,7.70
2019-02-21T01:34:35.263Z,7.40
2019-02-21T01:39:41.656Z,7.30
2019-02-21T01:44:47.620Z,6.90
2019-02-21T01:49:53.678Z,7.73
2019-02-21T01:54:59.405Z,8.13
2019-02-21T02:00:08.764Z,7.70
2019-02-21T02:05:15.411Z,8.60
2019-02-21T02:10:23.580Z,8.37
2019-02-21T02:15:31.839Z,8.80
2019-02-21T02:20:39.296Z,10.43
2019-02-21T02:25:44.902Z,10.77
2019-02-21T02:30:50.539Z,11.43
2019-02-21T02:35:56.277Z,11.43
2019-02-21T02:41:02.115Z,12.43
2019-02-21T02:46:08.973Z,11.47
2019-02-21T02:51:14.708Z,13.20
2019-02-21T02:56:24.176Z,12.97
2019-02-21T03:01:34.643Z,14.10
2019-02-21T03:06:39.762Z,14.73
2019-02-21T03:11:45.440Z,14.67
2019-02-21T03:16:53.307Z,15.97
2019-02-21T03:22:01.164Z,15.97
2019-02-21T03:27:08.111Z,15.37
2019-02-21T03:32:13.863Z,15.40
2019-02-21T03:37:19.730Z,15.43
2019-02-21T03:42:28.811Z,15.90
2019-02-21T03:47:34.922Z,16.40
2019-02-21T03:52:43.654Z,17.77
2019-02-21T03:57:49.245Z,17.27
2019-02-21T04:02:55.966Z,16.80
2019-02-21T04:08:01.853Z,18.20
2019-02-21T04:13:08.006Z,18.83
2019-02-21T04:18:15.883Z,20.30
2019-02-21T04:23:21.924Z,20.33
2019-02-21T04:28:27.920Z,20.93
2019-02-21T04:33:34.486Z,20.60
2019-02-21T04:38:41.801Z,21.03
2019-02-21T04:43:47.445Z,22.33
2019-02-21T04:48:54.259Z,21.40
2019-02-21T04:53:59.939Z,22.40
2019-02-21T04:59:06.810Z,23.50
2019-02-21T05:04:17.980Z,22.63
2019-02-21T05:09:23.940Z,24.57
2019-02-21T05:14:31.336Z,23.67
2019-02-21T05:19:38.424Z,23.87
2019-02-21T05:24:45.580Z,23.63
2019-02-21T05:29:52.963Z,26.53
2019-02-21T05:35:02.150Z,26.53
2019-02-21T05:40:21.778Z,26.30
2019-02-21T05:45:32.334Z,27.13
2019-02-21T05:50:45.254Z,27.80
2019-02-21T05:56:10.118Z,26.07
2019-02-21T06:01:20.584Z,26.23
2019-02-21T06:06:35.115Z,26.40
2019-02-21T06:12:01.145Z,27.10
2019-02-21T06:17:15.739Z,26.50
2019-02-21T06:22:23.494Z,27.80
2019-02-21T06:27:39.151Z,27.10
2019-02-21T06:32:44.957Z,27.13
2019-02-21T06:37:50.993Z,26.23
2019-02-21T06:42:57.313Z,26.97
2019-02-21T06:48:03.171Z,26.37
2019-02-21T06:53:09.634Z,26.77
2019-02-21T06:58:16.757Z,26.67
2019-02-21T07:03:22.773Z,26.07
2019-02-21T07:08:28.450Z,25.93
2019-02-21T07:13:34.405Z,24.87
2019-02-21T07:18:41.000Z,23.53
2019-02-21T07:23:46.825Z,25.00
2019-02-21T07:28:53.241Z,23.80
2019-02-21T07:34:01.554Z,25.13
2019-02-21T07:39:16.890Z,23.60
2019-02-21T07:44:15.162Z,24.23
2019-02-21T07:49:21.268Z,24.80
2019-02-21T07:54:27.476Z,23.00
2019-02-21T07:59:33.922Z,21.60
2019-02-21T08:04:40.037Z,23.63
2019-02-21T08:09:45.623Z,23.60
2019-02-21T08:14:56.139Z,24.93
2019-02-21T08:20:08.376Z,24.97
2019-02-21T08:25:10.998Z,25.27
2019-02-21T08:30:16.836Z,24.43
2019-02-21T08:35:23.162Z,26.43
2019-02-21T08:40:29.260Z,24.77
2019-02-21T08:45:35.789Z,27.57
2019-02-21T08:50:41.655Z,25.80
2019-02-21T08:55:47.807Z,25.53
2019-02-21T09:00:54.489Z,25.50
2019-02-21T09:06:00.211Z,25.97
2019-02-21T09:11:06.127Z,23.77
2019-02-21T09:16:12.766Z,25.83
2019-02-21T09:21:18.694Z,26.37
2019-02-21T09:26:24.400Z,24.93
2019-02-21T09:31:30.840Z,24.43
2019-02-21T09:36:36.473Z,22.83
2019-02-21T09:41:42.121Z,22.23
2019-02-21T09:46:47.877Z,22.97
2019-02-21T09:51:53.684Z,22.57
2019-02-21T09:56:59.980Z,24.10
2019-02-21T10:02:06.238Z,20.83
2019-02-21T10:07:11.794Z,23.03
2019-02-21T10:12:18.890Z,21.77
2019-02-21T10:17:24.911Z,22.23
2019-02-21T10:22:31.538Z,20.87
2019-02-21T10:27:37.796Z,20.80
2019-02-21T10:32:43.640Z,20.63
2019-02-21T10:37:49.274Z,18.70
2019-02-21T10:42:55.221Z,19.80
2019-02-21T10:48:00.810Z,19.63
2019-02-21T10:53:07.049Z,19.93
2019-02-21T10:58:13.515Z,19.27
2019-02-21T11:03:20.090Z,18.47
2019-02-21T11:08:27.024Z,17.30
2019-02-21T11:13:33.136Z,17.33
2019-02-21T11:18:41.316Z,17.53
2019-02-21T11:23:47.144Z,17.67
2019-02-21T11:28:53.439Z,15.97
2019-02-21T11:33:59.312Z,16.77
2019-02-21T11:39:07.212Z,17.20
2019-02-21T11:44:13.040Z,15.80
2019-02-21T11:49:19.186Z,15.10
2019-02-21T11:54:27.233Z,29.35
2019-02-21T11:59:33.843Z,14.87
2019-02-21T12:04:42.556Z,14.90
2019-02-21T12:09:49.497Z,14.20
2019-02-21T12:14:56.210Z,15.27
2019-02-21T12:20:02.065Z,14.40
2019-02-21T12:25:12.809Z,15.13
2019-02-21T12:30:22.283Z,13.73
2019-02-21T12:35:29.912Z,12.93
2019-02-21T12:40:36.616Z,23.17
2019-02-21T12:45:42.412Z,11.63
2019-02-21T12:50:48.887Z,11.07
2019-02-21T12:55:54.665Z,11.50
2019-02-21T13:01:00.328Z,10.47
2019-02-21T13:06:06.545Z,9.53
2019-02-21T13:11:12.949Z,7.67
2019-02-21T13:16:19.339Z,8.90
2019-02-21T13:21:25.329Z,8.10
2019-02-21T13:26:31.819Z,7.63
2019-02-21T13:31:37.657Z,7.90
2019-02-21T13:36:44.619Z,8.70
2019-02-21T13:41:51.030Z,8.90
2019-02-21T13:46:57.137Z,8.57
2019-02-21T13:52:03.132Z,8.63
2019-02-21T13:57:09.182Z,9.40
2019-02-21T14:02:15.421Z,8.70
2019-02-21T14:07:21.730Z,8.13
2019-02-21T14:12:28.761Z,9.03
2019-02-21T14:17:35.553Z,8.77
2019-02-21T14:22:42.565Z,8.67
2019-02-21T14:27:49.540Z,9.47
2019-02-21T14:32:57.234Z,10.03
2019-02-21T14:38:04.563Z,10.60
2019-02-21T14:43:16.111Z,10.63
2019-02-21T14:48:20.509Z,10.70
2019-02-21T14:53:26.925Z,10.23
2019-02-21T14:58:33.095Z,10.23
2019-02-21T15:03:38.900Z,10.13
2019-02-21T15:08:47.249Z,9.67
2019-02-21T15:13:53.439Z,10.30
2019-02-21T15:19:00.730Z,10.70
2019-02-21T15:24:06.866Z,9.90
2019-02-21T15:29:13.082Z,10.50
2019-02-21T15:34:18.962Z,9.67
2019-02-21T15:39:24.990Z,10.20
2019-02-21T15:44:32.544Z,9.73
2019-02-21T15:49:39.241Z,10.03
2019-02-21T15:54:45.083Z,10.30
2019-02-21T15:59:51.602Z,9.87
2019-02-21T16:04:57.701Z,9.97
2019-02-21T16:10:06.866Z,10.37
2019-02-21T16:15:16.395Z,9.60
2019-02-21T16:20:21.917Z,10.20
2019-02-21T16:25:30.379Z,10.27
2019-02-21T16:30:36.359Z,10.10
2019-02-21T16:35:42.852Z,10.43
2019-02-21T16:40:49.118Z,9.23
2019-02-21T16:45:54.903Z,9.33
2019-02-21T16:51:02.190Z,10.30
2019-02-21T16:56:07.965Z,9.97
2019-02-21T17:01:18.503Z,8.90
2019-02-21T17:06:26.905Z,10.23
2019-02-21T17:11:34.534Z,9.93
2019-02-21T17:16:40.705Z,9.60
2019-02-21T17:21:47.564Z,9.67
2019-02-21T17:26:55.726Z,9.17
2019-02-21T17:32:05.306Z,9.07
2019-02-21T17:37:11.231Z,9.57
2019-02-21T17:42:19.530Z,10.93
2019-02-21T17:47:26.498Z,10.10
2019-02-21T17:52:37.212Z,10.90
2019-02-21T17:57:43.330Z,10.50
2019-02-21T18:02:49.179Z,12.87
2019-02-21T18:07:55.365Z,12.70
2019-02-21T18:13:01.708Z,13.90
2019-02-21T18:18:12.176Z,13.77
2019-02-21T18:23:18.054Z,15.50
2019-02-21T18:28:26.023Z,16.80
2019-02-21T18:33:32.422Z,18.10
2019-02-21T18:38:42.577Z,17.87
2019-02-21T18:43:48.289Z,19.23
2019-02-21T18:48:54.424Z,21.10
2019-02-21T18:54:00.188Z,19.87
2019-02-21T18:59:08.262Z,19.67
2019-02-21T19:04:15.449Z,20.23
2019-02-21T19:09:26.907Z,21.43
2019-02-21T19:14:34.007Z,21.03
2019-02-21T19:19:41.718Z,22.67
2019-02-21T19:24:47.447Z,22.40
2019-02-21T19:29:53.678Z,24.30
2019-02-21T19:34:59.628Z,22.90
2019-02-21T19:40:08.396Z,23.93
2019-02-21T19:45:14.047Z,22.77
2019-02-21T19:50:19.930Z,24.10
2019-02-21T19:55:26.729Z,25.10
2019-02-21T20:00:33.659Z,25.30
2019-02-21T20:05:39.317Z,26.93
2019-02-21T20:10:49.324Z,26.23
2019-02-21T20:15:55.357Z,28.27
2019-02-21T20:21:02.238Z,28.87
2019-02-21T20:26:18.007Z,30.83
2019-02-21T20:31:19.520Z,30.10
2019-02-21T20:36:26.336Z,31.17
2019-02-21T20:41:32.184Z,27.80
2019-02-21T20:46:38.420Z,29.67
2019-02-21T20:51:44.197Z,30.13
2019-02-21T20:56:50.456Z,31.73
2019-02-21T21:01:56.197Z,31.13
2019-02-21T21:07:05.126Z,27.63
2019-02-21T21:12:11.353Z,30.50
2019-02-21T21:17:19.711Z,30.53
2019-02-21T21:22:25.388Z,31.13
2019-02-21T21:27:31.343Z,27.73
2019-02-21T21:32:39.618Z,27.20
2019-02-21T21:37:47.429Z,28.07
2019-02-21T21:42:55.637Z,27.50
2019-02-21T21:48:01.473Z,27.53
2019-02-21T21:53:10.593Z,27.63
2019-02-21T21:58:16.557Z,30.23
2019-02-21T22:03:28.973Z,30.00
2019-02-21T22:08:36.253Z,31.87
2019-02-21T22:13:42.764Z,32.33
2019-02-21T22:18:48.363Z,32.87
2019-02-21T22:23:54.572Z,28.20
2019-02-21T22:29:01.962Z,30.00
2019-02-21T22:34:09.123Z,28.93
2019-02-21T22:39:16.515Z,27.03
2019-02-21T22:44:23.029Z,26.77
2019-02-21T22:49:29.061Z,27.80
2019-02-21T22:54:35.313Z,24.83
2019-02-21T22:59:41.906Z,23.50
2019-02-21T23:04:53.822Z,21.53
2019-02-21T23:09:59.700Z,20.63
2019-02-21T23:15:06.866Z,18.80
2019-02-21T23:20:12.487Z,19.00
2019-02-21T23:25:19.221Z,16.33
2019-02-21T23:30:26.479Z,17.83
2019-02-21T23:35:32.387Z,17.87
2019-02-21T23:40:38.582Z,15.67
2019-02-21T23:45:48.486Z,15.23
2019-02-21T23:50:54.227Z,14.07
2019-02-21T23:56:00.052Z,14.17
